createdAt,value
2019-03-25T00:01:02.801Z,58.47
2019-03-25T00:03:32.336Z,53.57
2019-03-25T00:06:01.851Z,52.53
2019-03-25T00:08:31.400Z,53.57
2019-03-25T00:11:00.949Z,54.60
2019-03-25T00:13:30.481Z,53.70
2019-03-25T00:15:59.946Z,53.37
2019-03-25T00:18:29.408Z,53.57
2019-03-25T00:20:58.797Z,56.47
2019-03-25T00:23:28.335Z,52.53
2019-03-25T00:25:58.354Z,56.03
2019-03-25T00:28:27.802Z,58.20
2019-03-25T00:30:57.201Z,53.87
2019-03-25T00:33:26.989Z,53.30
2019-03-25T00:35:56.458Z,56.20
2019-03-25T00:38:25.949Z,53.47
2019-03-25T00:40:55.446Z,56.57
2019-03-25T00:43:24.904Z,53.23
2019-03-25T00:45:54.373Z,53.63
2019-03-25T00:48:23.829Z,55.30
2019-03-25T00:50:53.292Z,56.40
2019-03-25T00:53:22.749Z,54.23
2019-03-25T00:55:52.746Z,54.10
2019-03-25T00:58:22.501Z,55.30
2019-03-25T01:00:52.046Z,53.57
2019-03-25T01:03:21.497Z,52.93
2019-03-25T01:05:50.990Z,52.47
2019-03-25T01:08:20.446Z,55.07
2019-03-25T01:10:49.916Z,57.47
2019-03-25T01:13:19.482Z,54.67
2019-03-25T01:15:49.217Z,51.00
2019-03-25T01:18:18.689Z,55.27
2019-03-25T01:20:48.225Z,53.43
2019-03-25T01:23:17.761Z,55.17
2019-03-25T01:25:47.162Z,53.17
2019-03-25T01:28:16.857Z,55.23
2019-03-25T01:30:46.619Z,52.10
2019-03-25T01:33:16.404Z,51.20
2019-03-25T01:35:45.807Z,55.67
2019-03-25T01:38:15.553Z,54.30
2019-03-25T01:40:45.030Z,54.33
2019-03-25T01:43:14.721Z,58.07
2019-03-25T01:45:44.257Z,53.30
2019-03-25T01:48:13.743Z,51.33
2019-03-25T01:50:43.306Z,56.20
2019-03-25T01:53:12.877Z,53.67
2019-03-25T01:55:42.734Z,49.73
2019-03-25T01:58:12.441Z,53.43
2019-03-25T02:00:42.270Z,55.53
2019-03-25T02:03:11.805Z,53.30
2019-03-25T02:05:41.694Z,52.53
2019-03-25T02:08:11.589Z,52.20
2019-03-25T02:10:40.993Z,55.97
2019-03-25T02:13:10.526Z,55.07
2019-03-25T02:15:40.069Z,56.33
2019-03-25T02:18:09.528Z,54.23
2019-03-25T02:20:38.918Z,52.00
2019-03-25T02:23:08.621Z,53.97
2019-03-25T02:25:38.451Z,56.30
2019-03-25T02:28:08.002Z,53.90
2019-03-25T02:30:37.543Z,55.63
2019-03-25T02:33:06.929Z,61.27
2019-03-25T02:35:36.393Z,58.47
2019-03-25T02:38:05.846Z,53.83
2019-03-25T02:40:35.303Z,58.77
2019-03-25T02:43:05.933Z,54.57
2019-03-25T02:45:35.389Z,59.67
2019-03-25T02:48:04.929Z,59.37
2019-03-25T02:50:34.547Z,57.03
2019-03-25T02:53:04.089Z,56.77
2019-03-25T02:55:41.427Z,57.23
2019-03-25T02:58:05.292Z,57.03
2019-03-25T03:00:36.821Z,60.83
2019-03-25T03:03:07.200Z,60.17
2019-03-25T03:05:37.362Z,56.90
2019-03-25T03:08:07.001Z,56.67
2019-03-25T03:10:36.809Z,60.67
2019-03-25T03:13:06.637Z,59.47
2019-03-25T03:15:36.526Z,58.93
2019-03-25T03:18:06.330Z,55.73
2019-03-25T03:20:35.697Z,60.27
2019-03-25T03:23:05.239Z,61.23
2019-03-25T03:25:34.798Z,57.73
2019-03-25T03:28:04.573Z,55.93
2019-03-25T03:30:34.107Z,60.07
2019-03-25T03:33:03.714Z,57.97
2019-03-25T03:35:33.323Z,61.40
2019-03-25T03:38:02.812Z,58.70
2019-03-25T03:40:33.034Z,61.77
2019-03-25T03:43:02.574Z,58.40
2019-03-25T03:45:31.945Z,60.37
2019-03-25T03:48:01.701Z,61.63
2019-03-25T03:50:31.425Z,61.30
2019-03-25T03:53:00.899Z,59.47
2019-03-25T03:55:31.221Z,58.80
2019-03-25T03:58:01.054Z,59.03
2019-03-25T04:00:32.305Z,62.90
2019-03-25T04:03:02.350Z,57.97
2019-03-25T04:05:32.100Z,59.10
2019-03-25T04:08:01.660Z,62.93
2019-03-25T04:10:31.241Z,58.20
2019-03-25T04:13:00.793Z,60.40
2019-03-25T04:15:31.794Z,61.30
2019-03-25T04:18:02.134Z,57.73
2019-03-25T04:20:31.948Z,59.93
2019-03-25T04:23:01.405Z,64.40
2019-03-25T04:25:31.202Z,66.33
2019-03-25T04:28:00.735Z,61.00
2019-03-25T04:30:30.197Z,59.97
2019-03-25T04:32:59.730Z,61.17
2019-03-25T04:35:29.278Z,62.03
2019-03-25T04:37:58.802Z,63.50
2019-03-25T04:40:28.277Z,61.77
2019-03-25T04:42:57.838Z,59.33
2019-03-25T04:45:27.418Z,61.17
2019-03-25T04:47:57.174Z,56.13
2019-03-25T04:50:26.701Z,58.90
2019-03-25T04:52:56.245Z,60.47
2019-03-25T04:55:25.720Z,57.37
2019-03-25T04:57:55.257Z,56.57
2019-03-25T05:00:35.690Z,59.60
2019-03-25T05:03:05.322Z,57.37
2019-03-25T05:05:36.184Z,58.47
2019-03-25T05:08:06.284Z,57.63
2019-03-25T05:10:35.686Z,60.23
2019-03-25T05:13:05.223Z,60.83
2019-03-25T05:15:34.793Z,58.63
2019-03-25T05:18:04.347Z,59.87
2019-03-25T05:20:33.806Z,58.53
2019-03-25T05:23:03.201Z,59.00
2019-03-25T05:25:32.920Z,61.33
2019-03-25T05:28:02.917Z,58.07
2019-03-25T05:30:32.769Z,56.57
2019-03-25T05:33:02.611Z,58.67
2019-03-25T05:35:32.138Z,56.60
2019-03-25T05:38:01.833Z,57.20
2019-03-25T05:40:31.381Z,54.30
2019-03-25T05:43:00.905Z,52.17
2019-03-25T05:45:30.373Z,51.37
2019-03-25T05:47:59.843Z,48.93
2019-03-25T05:50:29.735Z,51.60
2019-03-25T05:52:59.198Z,48.43
2019-03-25T05:55:28.788Z,49.53
2019-03-25T05:57:58.313Z,45.17
2019-03-25T06:00:31.265Z,45.83
2019-03-25T06:03:01.122Z,42.13
2019-03-25T06:05:30.576Z,40.70
2019-03-25T06:07:59.957Z,40.00
2019-03-25T06:10:29.425Z,37.13
2019-03-25T06:12:59.185Z,38.33
2019-03-25T06:15:28.649Z,33.67
2019-03-25T06:17:58.553Z,33.43
2019-03-25T06:20:28.090Z,31.17
2019-03-25T06:22:57.537Z,29.73
2019-03-25T06:25:26.993Z,27.90
2019-03-25T06:27:56.692Z,27.33
2019-03-25T06:30:26.207Z,27.90
2019-03-25T06:32:55.700Z,27.73
2019-03-25T06:35:25.186Z,28.00
2019-03-25T06:37:54.760Z,27.57
2019-03-25T06:40:24.292Z,27.13
2019-03-25T06:42:53.740Z,25.93
2019-03-25T06:45:23.536Z,26.47
2019-03-25T06:47:53.055Z,24.17
2019-03-25T06:50:22.522Z,24.90
2019-03-25T06:52:51.996Z,21.47
2019-03-25T06:55:21.534Z,23.00
2019-03-25T06:57:51.110Z,21.10
2019-03-25T07:00:21.159Z,20.00
2019-03-25T07:02:50.954Z,18.67
2019-03-25T07:05:20.409Z,19.13
2019-03-25T07:07:49.949Z,18.60
2019-03-25T07:10:32.002Z,18.83
2019-03-25T07:13:02.129Z,19.20
2019-03-25T07:15:31.668Z,20.37
2019-03-25T07:18:01.211Z,19.73
2019-03-25T07:20:31.102Z,18.90
2019-03-25T07:23:01.426Z,18.80
2019-03-25T07:25:31.029Z,19.03
2019-03-25T07:28:00.401Z,18.97
2019-03-25T07:30:30.026Z,19.80
2019-03-25T07:32:59.945Z,19.57
2019-03-25T07:35:29.419Z,18.00
2019-03-25T07:37:58.967Z,18.13
2019-03-25T07:40:28.470Z,17.87
2019-03-25T07:42:57.942Z,16.17
2019-03-25T07:45:27.482Z,16.50
2019-03-25T07:47:57.386Z,17.17
2019-03-25T07:50:27.117Z,16.23
2019-03-25T07:52:56.639Z,16.87
2019-03-25T07:55:26.129Z,17.10
2019-03-25T07:57:55.877Z,15.53
2019-03-25T08:00:25.725Z,15.77
2019-03-25T08:02:55.184Z,16.80
2019-03-25T08:05:24.718Z,13.67
2019-03-25T08:07:54.276Z,15.33
2019-03-25T08:10:34.616Z,14.23
2019-03-25T08:13:04.270Z,16.30
2019-03-25T08:15:34.048Z,13.60
2019-03-25T08:18:04.023Z,13.03
2019-03-25T08:20:33.657Z,12.63
2019-03-25T08:23:03.260Z,12.83
2019-03-25T08:25:32.806Z,12.43
2019-03-25T08:28:02.364Z,11.97
2019-03-25T08:30:32.842Z,12.83
2019-03-25T08:33:02.381Z,13.30
2019-03-25T08:35:31.841Z,13.07
2019-03-25T08:38:01.389Z,12.17
2019-03-25T08:40:30.767Z,13.00
2019-03-25T08:43:00.325Z,11.73
2019-03-25T08:45:30.581Z,12.13
2019-03-25T08:48:00.451Z,10.30
2019-03-25T08:50:30.018Z,10.27
2019-03-25T08:52:59.593Z,10.67
2019-03-25T08:55:29.138Z,10.77
2019-03-25T08:57:58.674Z,10.60
2019-03-25T09:00:28.132Z,10.17
2019-03-25T09:02:57.689Z,10.27
2019-03-25T09:05:27.594Z,11.07
2019-03-25T09:07:57.169Z,10.80
2019-03-25T09:10:26.694Z,9.93
2019-03-25T09:12:56.581Z,10.27
2019-03-25T09:15:25.946Z,8.87
2019-03-25T09:17:55.489Z,10.30
2019-03-25T09:20:25.093Z,10.03
2019-03-25T09:22:54.628Z,7.97
2019-03-25T09:25:24.788Z,9.57
2019-03-25T09:27:54.366Z,7.10
2019-03-25T09:31:15.670Z,8.07
2019-03-25T09:33:46.202Z,8.70
2019-03-25T09:36:17.799Z,7.40
2019-03-25T09:38:47.365Z,6.70
2019-03-25T09:41:16.920Z,6.77
2019-03-25T09:43:46.732Z,6.33
2019-03-25T09:46:16.576Z,6.90
2019-03-25T09:48:46.343Z,6.53
2019-03-25T09:51:15.895Z,6.03
2019-03-25T09:53:45.458Z,6.70
2019-03-25T09:56:14.903Z,6.23
2019-03-25T09:58:44.361Z,6.57
2019-03-25T10:01:13.886Z,5.97
2019-03-25T10:03:43.898Z,6.43
2019-03-25T10:06:13.421Z,6.70
2019-03-25T10:08:42.994Z,6.00
2019-03-25T10:11:12.522Z,5.87
2019-03-25T10:13:42.074Z,6.00
2019-03-25T10:16:11.621Z,7.20
2019-03-25T10:18:41.167Z,6.07
2019-03-25T10:21:10.648Z,5.83
2019-03-25T10:23:40.221Z,4.57
2019-03-25T10:26:10.011Z,4.10
2019-03-25T10:28:48.646Z,4.53
2019-03-25T10:31:10.898Z,5.47
2019-03-25T10:33:40.465Z,5.40
2019-03-25T10:36:09.993Z,4.17
2019-03-25T10:38:39.531Z,5.10
2019-03-25T10:41:08.977Z,3.23
2019-03-25T10:43:38.630Z,3.40
2019-03-25T10:46:08.070Z,3.90
2019-03-25T10:48:37.838Z,4.00
2019-03-25T10:51:07.368Z,4.27
2019-03-25T10:53:36.930Z,3.80
2019-03-25T10:56:06.483Z,3.77
2019-03-25T10:58:36.721Z,3.60
2019-03-25T11:01:09.451Z,4.10
2019-03-25T11:03:38.881Z,4.07
2019-03-25T11:06:08.404Z,4.43
2019-03-25T11:08:37.949Z,4.27
2019-03-25T11:11:07.800Z,2.23
2019-03-25T11:13:37.347Z,2.67
2019-03-25T11:16:06.874Z,3.13
2019-03-25T11:18:36.345Z,2.73
2019-03-25T11:21:05.868Z,2.80
2019-03-25T11:23:35.257Z,1.90
2019-03-25T11:26:04.775Z,2.97
2019-03-25T11:28:34.351Z,2.40
2019-03-25T11:31:03.891Z,1.70
2019-03-25T11:33:33.434Z,1.67
2019-03-25T11:36:03.006Z,1.77
2019-03-25T11:38:32.809Z,1.77
2019-03-25T11:41:02.685Z,2.07
2019-03-25T11:43:32.153Z,1.87
2019-03-25T11:46:01.673Z,2.07
2019-03-25T11:48:31.409Z,2.53
2019-03-25T11:51:01.214Z,2.13
2019-03-25T11:53:30.669Z,1.83
2019-03-25T11:56:00.409Z,2.30
2019-03-25T11:58:29.952Z,2.40
2019-03-25T12:00:59.502Z,2.63
2019-03-25T12:03:29.059Z,2.37
2019-03-25T12:05:58.605Z,2.27
2019-03-25T12:08:28.611Z,2.90
2019-03-25T12:10:58.133Z,2.43
2019-03-25T12:13:27.820Z,3.07
2019-03-25T12:15:57.278Z,2.80
2019-03-25T12:18:26.825Z,2.93
2019-03-25T12:20:56.274Z,3.33
2019-03-25T12:23:26.678Z,2.40
2019-03-25T12:25:56.445Z,2.97
2019-03-25T12:28:25.892Z,3.07
2019-03-25T12:30:55.742Z,2.67
2019-03-25T12:33:25.303Z,2.77
2019-03-25T12:35:54.865Z,3.23
2019-03-25T12:38:24.446Z,2.70
2019-03-25T12:40:54.088Z,2.50
2019-03-25T12:43:23.643Z,2.37
2019-03-25T12:45:53.671Z,3.10
2019-03-25T12:48:23.209Z,2.47
2019-03-25T12:50:52.662Z,2.70
2019-03-25T12:53:22.500Z,3.23
2019-03-25T12:55:52.027Z,2.80
2019-03-25T12:58:22.317Z,2.93
2019-03-25T13:00:52.242Z,3.03
2019-03-25T13:03:21.694Z,3.43
2019-03-25T13:05:51.237Z,3.70
2019-03-25T13:08:20.712Z,4.17
2019-03-25T13:10:50.674Z,3.90
2019-03-25T13:13:20.167Z,4.10
2019-03-25T13:15:49.794Z,4.27
2019-03-25T13:18:19.270Z,3.53
2019-03-25T13:20:48.632Z,4.10
2019-03-25T13:23:18.078Z,4.10
2019-03-25T13:25:47.457Z,4.20
2019-03-25T13:28:17.250Z,3.13
2019-03-25T13:30:47.080Z,3.67
2019-03-25T13:33:16.722Z,3.30
2019-03-25T13:35:46.462Z,3.00
2019-03-25T13:38:15.918Z,2.23
2019-03-25T13:40:45.466Z,3.27
2019-03-25T13:43:14.910Z,3.30
2019-03-25T13:45:44.803Z,2.13
2019-03-25T13:48:14.263Z,2.50
2019-03-25T13:50:43.666Z,2.90
2019-03-25T13:53:13.453Z,2.23
2019-03-25T13:55:42.846Z,2.70
2019-03-25T13:58:12.525Z,2.20
2019-03-25T14:00:42.489Z,2.33
2019-03-25T14:03:12.413Z,1.70
2019-03-25T14:05:42.265Z,1.90
2019-03-25T14:08:12.124Z,2.23
2019-03-25T14:10:41.657Z,2.03
2019-03-25T14:13:11.066Z,2.20
2019-03-25T14:15:40.549Z,2.23
2019-03-25T14:18:10.105Z,2.10
2019-03-25T14:20:39.586Z,2.40
2019-03-25T14:23:09.122Z,2.67
2019-03-25T14:25:38.577Z,2.63
2019-03-25T14:28:08.115Z,2.90
2019-03-25T14:30:37.573Z,3.33
2019-03-25T14:33:07.371Z,3.07
2019-03-25T14:35:36.849Z,2.60
2019-03-25T14:38:06.372Z,3.27
2019-03-25T14:40:35.752Z,3.50
2019-03-25T14:43:05.893Z,3.57
2019-03-25T14:45:35.373Z,3.53
2019-03-25T14:48:04.897Z,3.50
2019-03-25T14:50:34.538Z,3.30
2019-03-25T14:53:04.103Z,3.80
2019-03-25T14:55:33.679Z,3.63
2019-03-25T14:58:03.137Z,3.70
2019-03-25T15:00:32.613Z,3.37
2019-03-25T15:03:02.057Z,3.33
2019-03-25T15:05:31.581Z,3.40
2019-03-25T15:08:00.962Z,2.60
2019-03-25T15:10:30.953Z,2.90
2019-03-25T15:13:00.647Z,2.60
2019-03-25T15:15:30.172Z,2.67
2019-03-25T15:17:59.551Z,2.33
2019-03-25T15:20:29.137Z,2.10
2019-03-25T15:22:58.600Z,3.13
2019-03-25T15:25:28.382Z,2.33
2019-03-25T15:27:58.144Z,2.47
2019-03-25T15:30:35.839Z,2.90
2019-03-25T15:33:00.250Z,2.53
2019-03-25T15:35:30.009Z,3.17
2019-03-25T15:37:59.801Z,2.23
2019-03-25T15:40:29.421Z,2.23
2019-03-25T15:42:59.049Z,2.20
2019-03-25T15:45:28.421Z,2.17
2019-03-25T15:47:58.235Z,2.27
2019-03-25T15:50:27.701Z,2.00
2019-03-25T15:52:57.445Z,2.27
2019-03-25T15:55:27.238Z,2.63
2019-03-25T15:57:57.061Z,2.10
2019-03-25T16:00:26.889Z,2.90
2019-03-25T16:02:56.396Z,3.20
2019-03-25T16:05:25.987Z,3.63
2019-03-25T16:07:55.445Z,3.50
2019-03-25T16:10:24.960Z,3.40
2019-03-25T16:12:54.508Z,3.27
2019-03-25T16:15:40.608Z,3.10
2019-03-25T16:18:12.266Z,4.00
2019-03-25T16:20:42.199Z,3.50
2019-03-25T16:23:11.715Z,4.30
2019-03-25T16:25:41.523Z,3.30
2019-03-25T16:28:11.126Z,2.60
2019-03-25T16:30:40.860Z,2.50
2019-03-25T16:33:10.707Z,2.17
2019-03-25T16:35:40.637Z,2.63
2019-03-25T16:38:10.329Z,1.83
2019-03-25T16:40:39.936Z,2.07
2019-03-25T16:43:09.517Z,1.80
2019-03-25T16:45:39.058Z,1.97
2019-03-25T16:48:08.650Z,1.73
2019-03-25T16:50:38.094Z,2.17
2019-03-25T16:53:07.642Z,1.70
2019-03-25T16:55:37.096Z,2.33
2019-03-25T16:58:06.650Z,1.77
2019-03-25T17:00:36.102Z,2.50
2019-03-25T17:03:05.637Z,2.40
2019-03-25T17:05:35.149Z,2.10
2019-03-25T17:08:05.603Z,1.67
2019-03-25T17:10:35.126Z,1.97
2019-03-25T17:13:04.579Z,1.70
2019-03-25T17:15:34.025Z,1.90
2019-03-25T17:18:03.557Z,2.20
2019-03-25T17:20:33.162Z,2.47
2019-03-25T17:23:02.917Z,2.27
2019-03-25T17:25:32.293Z,1.97
2019-03-25T17:28:01.801Z,2.07
2019-03-25T17:30:31.364Z,1.53
2019-03-25T17:33:00.946Z,2.00
2019-03-25T17:35:30.308Z,2.13
2019-03-25T17:38:00.346Z,2.07
2019-03-25T17:40:29.927Z,2.03
2019-03-25T17:42:59.890Z,2.17
2019-03-25T17:45:29.328Z,2.97
2019-03-25T17:47:58.870Z,2.10
2019-03-25T17:50:28.395Z,2.97
2019-03-25T17:52:58.089Z,3.13
2019-03-25T17:55:28.422Z,2.43
2019-03-25T17:57:58.066Z,1.90
2019-03-25T18:01:18.568Z,2.93
2019-03-25T18:03:48.215Z,2.67
2019-03-25T18:06:17.674Z,2.60
2019-03-25T18:08:47.541Z,2.43
2019-03-25T18:11:17.081Z,2.93
2019-03-25T18:13:46.906Z,2.60
2019-03-25T18:16:16.497Z,2.60
2019-03-25T18:18:46.193Z,3.20
2019-03-25T18:21:15.579Z,2.60
2019-03-25T18:23:45.102Z,3.30
2019-03-25T18:26:14.536Z,2.50
2019-03-25T18:28:44.002Z,2.40
2019-03-25T18:31:13.602Z,3.80
2019-03-25T18:33:43.103Z,2.30
2019-03-25T18:36:12.638Z,2.30
2019-03-25T18:38:42.165Z,2.80
2019-03-25T18:41:11.915Z,2.50
2019-03-25T18:43:41.445Z,2.83
2019-03-25T18:46:10.981Z,3.50
2019-03-25T18:48:41.043Z,3.07
2019-03-25T18:51:10.576Z,3.37
2019-03-25T18:53:40.118Z,4.03
2019-03-25T18:56:09.975Z,4.27
2019-03-25T18:58:39.422Z,6.50
2019-03-25T19:01:08.886Z,7.57
2019-03-25T19:03:39.175Z,8.43
2019-03-25T19:06:08.723Z,6.70
2019-03-25T19:08:38.891Z,4.30
2019-03-25T19:11:08.489Z,11.33
2019-03-25T19:13:38.305Z,9.77
2019-03-25T19:16:07.873Z,11.70
2019-03-25T19:18:37.438Z,12.03
2019-03-25T19:21:06.892Z,10.80
2019-03-25T19:23:36.393Z,5.60
2019-03-25T19:26:05.975Z,5.17
2019-03-25T19:28:35.901Z,3.53
2019-03-25T19:31:05.549Z,5.10
2019-03-25T19:33:35.308Z,5.40
2019-03-25T19:36:05.033Z,4.43
2019-03-25T19:38:34.457Z,5.13
2019-03-25T19:41:03.915Z,4.23
2019-03-25T19:43:33.371Z,4.60
2019-03-25T19:46:02.870Z,2.90
2019-03-25T19:48:32.640Z,3.17
2019-03-25T19:51:02.309Z,2.87
2019-03-25T19:53:31.898Z,3.03
2019-03-25T19:56:02.151Z,2.53
2019-03-25T19:58:31.714Z,4.10
2019-03-25T20:01:01.302Z,4.17
2019-03-25T20:03:32.929Z,3.37
2019-03-25T20:06:02.069Z,2.00
2019-03-25T20:08:31.602Z,2.20
2019-03-25T20:11:01.281Z,2.30
2019-03-25T20:13:30.728Z,1.97
2019-03-25T20:16:00.761Z,2.03
2019-03-25T20:18:30.649Z,1.50
2019-03-25T20:21:00.115Z,2.00
2019-03-25T20:23:29.570Z,1.77
2019-03-25T20:25:59.161Z,2.07
2019-03-25T20:28:28.998Z,2.23
2019-03-25T20:30:58.481Z,1.53
2019-03-25T20:33:28.393Z,2.47
2019-03-25T20:35:58.007Z,2.87
2019-03-25T20:38:27.593Z,2.87
2019-03-25T20:40:57.200Z,2.33
2019-03-25T20:43:27.304Z,2.57
2019-03-25T20:45:57.333Z,3.17
2019-03-25T20:48:26.969Z,8.03
2019-03-25T20:50:56.463Z,6.10
2019-03-25T20:53:26.028Z,3.83
2019-03-25T20:55:55.642Z,3.03
2019-03-25T20:58:25.125Z,3.97
2019-03-25T21:00:56.597Z,3.53
2019-03-25T21:03:26.354Z,3.80
2019-03-25T21:05:55.961Z,3.17
2019-03-25T21:08:25.904Z,3.60
2019-03-25T21:10:55.493Z,3.60
2019-03-25T21:13:25.000Z,4.13
2019-03-25T21:15:54.597Z,4.30
2019-03-25T21:18:24.470Z,3.83
2019-03-25T21:20:53.936Z,3.90
2019-03-25T21:23:23.406Z,4.83
2019-03-25T21:25:53.262Z,4.43
2019-03-25T21:28:23.030Z,4.90
2019-03-25T21:30:52.982Z,4.57
2019-03-25T21:33:22.696Z,4.50
2019-03-25T21:35:52.400Z,5.07
2019-03-25T21:38:22.586Z,4.80
2019-03-25T21:40:52.285Z,5.13
2019-03-25T21:43:21.733Z,4.93
2019-03-25T21:45:51.266Z,4.93
2019-03-25T21:48:20.711Z,5.00
2019-03-25T21:50:50.188Z,5.30
2019-03-25T21:53:19.640Z,4.00
2019-03-25T21:55:49.074Z,4.20
2019-03-25T21:58:18.526Z,4.20
2019-03-25T22:00:48.332Z,4.53
2019-03-25T22:03:17.794Z,4.67
2019-03-25T22:05:47.273Z,4.83
2019-03-25T22:08:17.022Z,5.40
2019-03-25T22:10:46.414Z,4.40
2019-03-25T22:13:15.814Z,4.33
2019-03-25T22:15:45.583Z,4.83
2019-03-25T22:18:15.345Z,5.17
2019-03-25T22:20:44.739Z,4.63
2019-03-25T22:23:14.171Z,4.20
2019-03-25T22:25:43.764Z,4.20
2019-03-25T22:28:13.337Z,4.30
2019-03-25T22:30:42.781Z,3.63
2019-03-25T22:33:25.233Z,4.03
2019-03-25T22:35:45.262Z,4.07
2019-03-25T22:38:14.696Z,3.80
2019-03-25T22:40:44.162Z,4.13
2019-03-25T22:43:13.868Z,4.20
2019-03-25T22:45:43.781Z,4.00
2019-03-25T22:48:13.669Z,4.20
2019-03-25T22:50:43.196Z,4.07
2019-03-25T22:53:12.937Z,3.87
2019-03-25T22:55:42.732Z,4.10
2019-03-25T22:58:12.250Z,4.23
2019-03-25T23:00:44.786Z,5.17
2019-03-25T23:03:16.732Z,4.57
2019-03-25T23:05:46.213Z,4.20
2019-03-25T23:08:15.744Z,4.10
2019-03-25T23:10:47.162Z,4.33
2019-03-25T23:13:16.781Z,4.70
2019-03-25T23:15:46.649Z,4.67
2019-03-25T23:18:16.090Z,4.33
2019-03-25T23:20:45.686Z,5.53
2019-03-25T23:23:15.127Z,5.87
2019-03-25T23:25:44.666Z,6.67
2019-03-25T23:28:14.105Z,7.03
2019-03-25T23:30:44.059Z,7.87
2019-03-25T23:33:13.594Z,6.10
2019-03-25T23:35:43.140Z,5.77
2019-03-25T23:38:12.703Z,5.33
2019-03-25T23:40:42.185Z,5.27
2019-03-25T23:43:11.542Z,4.80
2019-03-25T23:45:41.087Z,5.40
2019-03-25T23:48:10.533Z,5.20
2019-03-25T23:50:40.073Z,5.57
2019-03-25T23:53:09.714Z,5.63
2019-03-25T23:55:39.168Z,6.20
2019-03-25T23:58:08.822Z,6.30
